createdAt,value
2022-12-26T00:02:00.561Z,4.20
2022-12-26T00:04:50.994Z,4.30
2022-12-26T00:07:15.111Z,4.40
2022-12-26T00:09:42.417Z,4.30
2022-12-26T00:12:09.322Z,4.30
2022-12-26T00:14:40.358Z,4.30
2022-12-26T00:17:08.705Z,4.30
2022-12-26T00:19:35.989Z,4.20
2022-12-26T00:22:03.039Z,4.20
2022-12-26T00:24:30.098Z,4.30
2022-12-26T00:26:56.982Z,4.30
2022-12-26T00:29:30.587Z,4.40
2022-12-26T00:31:57.614Z,4.30
2022-12-26T00:34:24.832Z,4.30
2022-12-26T00:36:52.628Z,4.30
2022-12-26T00:39:19.820Z,4.40
2022-12-26T00:41:46.834Z,4.40
2022-12-26T00:44:14.414Z,4.30
2022-12-26T00:46:41.517Z,4.30
2022-12-26T00:49:08.715Z,4.30
2022-12-26T00:51:35.761Z,4.40
2022-12-26T00:54:02.913Z,4.30
2022-12-26T00:56:30.068Z,4.40
2022-12-26T00:58:57.150Z,4.40
2022-12-26T01:01:24.722Z,4.40
2022-12-26T01:03:52.414Z,4.50
2022-12-26T01:06:19.623Z,4.50
2022-12-26T01:08:46.642Z,4.50
2022-12-26T01:11:16.203Z,4.50
2022-12-26T01:13:43.639Z,4.60
2022-12-26T01:16:11.089Z,4.60
2022-12-26T01:18:38.230Z,4.50
2022-12-26T01:21:11.436Z,4.60
2022-12-26T01:23:42.071Z,4.60
2022-12-26T01:26:19.036Z,4.60
2022-12-26T01:29:08.513Z,4.80
2022-12-26T01:31:38.641Z,4.80
2022-12-26T01:34:09.778Z,4.70
2022-12-26T01:36:37.406Z,4.60
2022-12-26T01:39:04.554Z,4.60
2022-12-26T01:41:39.528Z,4.60
2022-12-26T01:44:49.833Z,4.60
2022-12-26T01:47:24.138Z,4.50
2022-12-26T01:49:58.115Z,4.60
2022-12-26T01:52:36.585Z,4.50
2022-12-26T01:55:12.592Z,4.50
2022-12-26T01:57:45.138Z,4.60
2022-12-26T02:00:18.773Z,4.60
2022-12-26T02:03:08.238Z,4.50
2022-12-26T02:05:35.763Z,4.50
2022-12-26T02:08:27.630Z,4.50
2022-12-26T02:11:27.821Z,4.50
2022-12-26T02:13:56.822Z,4.60
2022-12-26T02:16:25.875Z,4.50
2022-12-26T02:18:54.049Z,4.50
2022-12-26T02:21:49.186Z,4.40
2022-12-26T02:24:45.519Z,4.50
2022-12-26T02:27:50.199Z,4.50
2022-12-26T02:30:36.300Z,4.50
2022-12-26T02:33:36.129Z,4.50
2022-12-26T02:36:15.137Z,4.40
2022-12-26T02:38:48.459Z,4.40
2022-12-26T02:41:24.443Z,4.40
2022-12-26T02:44:36.349Z,4.50
2022-12-26T02:47:24.366Z,4.40
2022-12-26T02:50:27.094Z,4.40
2022-12-26T02:53:39.110Z,4.40
2022-12-26T02:56:55.362Z,4.40
2022-12-26T03:00:10.760Z,4.40
2022-12-26T03:03:40.336Z,4.40
2022-12-26T03:06:38.479Z,4.30
2022-12-26T03:09:38.871Z,4.40
2022-12-26T03:12:38.972Z,4.40
2022-12-26T03:15:12.221Z,4.50
2022-12-26T03:17:46.048Z,4.40
2022-12-26T03:20:24.389Z,4.40
2022-12-26T03:22:54.566Z,4.40
2022-12-26T03:25:51.024Z,4.40
2022-12-26T03:28:18.116Z,4.40
2022-12-26T03:30:51.295Z,4.30
2022-12-26T03:33:46.976Z,4.30
2022-12-26T03:36:34.991Z,4.30
2022-12-26T03:39:47.455Z,4.30
2022-12-26T03:42:48.576Z,4.50
2022-12-26T03:45:45.219Z,4.40
2022-12-26T03:48:51.274Z,4.30
2022-12-26T03:51:51.185Z,4.30
2022-12-26T03:54:54.427Z,4.30
2022-12-26T03:57:43.294Z,4.30
2022-12-26T04:00:31.637Z,4.30
2022-12-26T04:03:26.783Z,4.30
2022-12-26T04:06:13.641Z,4.20
2022-12-26T04:09:22.665Z,4.20
2022-12-26T04:12:07.999Z,4.30
2022-12-26T04:15:13.083Z,4.20
2022-12-26T04:18:23.096Z,4.20
2022-12-26T04:21:08.993Z,4.30
2022-12-26T04:24:05.803Z,4.20
2022-12-26T04:27:01.885Z,4.10
2022-12-26T04:29:48.364Z,4.10
2022-12-26T04:33:04.665Z,4.10
2022-12-26T04:36:10.526Z,4.20
2022-12-26T04:39:09.629Z,4.20
2022-12-26T04:41:57.672Z,4.20
2022-12-26T04:44:27.896Z,4.20
2022-12-26T04:46:56.888Z,4.10
2022-12-26T04:49:42.674Z,4.10
2022-12-26T04:52:12.983Z,4.20
2022-12-26T04:54:40.689Z,4.10
2022-12-26T04:57:08.393Z,4.20
2022-12-26T04:59:35.434Z,4.30
2022-12-26T05:02:20.977Z,4.10
2022-12-26T05:05:09.313Z,4.10
2022-12-26T05:07:56.217Z,4.10
2022-12-26T05:10:28.381Z,4.10
2022-12-26T05:12:55.726Z,4.10
2022-12-26T05:15:23.614Z,4.10
2022-12-26T05:18:09.049Z,4.10
2022-12-26T05:21:14.667Z,4.10
2022-12-26T05:24:00.382Z,4.10
2022-12-26T05:26:46.109Z,4.10
2022-12-26T05:29:13.245Z,4.10
2022-12-26T05:31:40.386Z,4.10
2022-12-26T05:34:20.868Z,4.10
2022-12-26T05:36:50.380Z,4.10
2022-12-26T05:39:17.656Z,4.10
2022-12-26T05:41:44.929Z,4.10
2022-12-26T05:44:12.559Z,4.10
2022-12-26T05:46:40.086Z,4.10
2022-12-26T05:49:07.229Z,4.10
2022-12-26T05:51:34.543Z,4.10
2022-12-26T05:54:01.730Z,4.10
2022-12-26T05:56:28.870Z,4.10
2022-12-26T05:59:00.484Z,4.10
2022-12-26T06:01:29.251Z,4.20
2022-12-26T06:04:00.516Z,4.10
2022-12-26T06:06:28.175Z,4.10
2022-12-26T06:08:57.349Z,4.20
2022-12-26T06:11:26.918Z,4.20
2022-12-26T06:13:55.752Z,4.20
2022-12-26T06:16:23.444Z,4.30
2022-12-26T06:18:50.938Z,4.30
2022-12-26T06:21:19.945Z,4.20
2022-12-26T06:23:49.012Z,4.30
2022-12-26T06:26:17.256Z,4.30
2022-12-26T06:28:45.109Z,4.20
2022-12-26T06:31:21.583Z,4.30
2022-12-26T06:33:51.536Z,4.30
2022-12-26T06:36:21.530Z,4.40
2022-12-26T06:38:48.790Z,4.30
2022-12-26T06:41:18.689Z,4.40
2022-12-26T06:43:46.247Z,4.30
2022-12-26T06:46:16.869Z,4.30
2022-12-26T06:48:46.387Z,4.30
2022-12-26T06:51:16.818Z,4.40
2022-12-26T06:53:44.220Z,4.40
2022-12-26T06:56:15.658Z,4.30
2022-12-26T06:58:45.267Z,4.30
2022-12-26T07:01:20.768Z,4.30
2022-12-26T07:03:51.973Z,4.40
2022-12-26T07:06:31.256Z,4.50
2022-12-26T07:09:06.201Z,4.30
2022-12-26T07:11:37.004Z,4.40
2022-12-26T07:14:05.323Z,4.30
2022-12-26T07:16:37.201Z,4.40
2022-12-26T07:19:05.110Z,4.40
2022-12-26T07:21:39.801Z,4.30
2022-12-26T07:24:19.140Z,4.30
2022-12-26T07:26:46.902Z,4.50
2022-12-26T07:29:17.018Z,4.50
2022-12-26T07:31:44.724Z,4.40
2022-12-26T07:34:15.493Z,4.40
2022-12-26T07:36:46.602Z,4.40
2022-12-26T07:39:14.940Z,4.40
2022-12-26T07:42:03.578Z,4.40
2022-12-26T07:44:33.201Z,4.40
2022-12-26T07:47:03.235Z,4.40
2022-12-26T07:49:32.917Z,4.40
2022-12-26T07:52:00.281Z,4.50
2022-12-26T07:54:28.871Z,4.50
2022-12-26T07:57:15.035Z,4.50
2022-12-26T07:59:44.166Z,4.50
2022-12-26T08:02:11.791Z,4.50
2022-12-26T08:04:39.110Z,4.50
2022-12-26T08:07:13.581Z,4.60
2022-12-26T08:09:45.090Z,4.70
2022-12-26T08:12:13.158Z,4.70
2022-12-26T08:14:41.146Z,4.60
2022-12-26T08:17:08.703Z,4.70
2022-12-26T08:19:35.773Z,4.70
2022-12-26T08:22:03.994Z,4.70
2022-12-26T08:24:31.143Z,4.80
2022-12-26T08:26:58.238Z,4.80
2022-12-26T08:29:25.128Z,4.80
2022-12-26T08:31:52.421Z,4.80
2022-12-26T08:34:19.409Z,4.90
2022-12-26T08:36:46.752Z,4.90
2022-12-26T08:39:13.629Z,5.00
2022-12-26T08:41:40.581Z,5.00
2022-12-26T08:44:26.955Z,4.90
2022-12-26T08:46:54.411Z,4.90
2022-12-26T08:49:21.298Z,5.00
2022-12-26T08:51:48.375Z,5.10
2022-12-26T08:54:18.080Z,5.10
2022-12-26T08:56:45.220Z,5.00
2022-12-26T08:59:16.623Z,5.00
2022-12-26T09:01:43.809Z,5.00
2022-12-26T09:04:10.880Z,5.10
2022-12-26T09:06:39.535Z,5.10
2022-12-26T09:09:08.619Z,5.30
2022-12-26T09:11:35.615Z,5.30
2022-12-26T09:14:04.772Z,5.30
2022-12-26T09:16:49.155Z,5.30
2022-12-26T09:19:18.245Z,5.40
2022-12-26T09:21:46.511Z,5.40
2022-12-26T09:24:16.930Z,5.50
2022-12-26T09:26:44.844Z,5.60
2022-12-26T09:29:14.903Z,5.50
2022-12-26T09:31:42.367Z,5.60
2022-12-26T09:34:09.601Z,5.50
2022-12-26T09:36:38.726Z,5.50
2022-12-26T09:39:06.278Z,5.60
2022-12-26T09:42:07.400Z,5.60
2022-12-26T09:45:00.768Z,5.60
2022-12-26T09:47:32.342Z,5.70
2022-12-26T09:50:25.332Z,5.70
2022-12-26T09:53:03.549Z,5.70
2022-12-26T09:55:53.819Z,5.70
2022-12-26T09:58:31.365Z,5.90
2022-12-26T10:01:22.195Z,5.90
2022-12-26T10:04:01.292Z,6.00
2022-12-26T10:06:42.131Z,6.00
2022-12-26T10:09:45.332Z,6.10
2022-12-26T10:12:37.353Z,6.20
2022-12-26T10:15:16.370Z,6.20
2022-12-26T10:18:32.679Z,6.30
2022-12-26T10:21:34.419Z,6.30
2022-12-26T10:24:16.020Z,6.40
2022-12-26T10:26:57.522Z,6.50
2022-12-26T10:30:14.172Z,6.60
2022-12-26T10:32:49.186Z,6.60
2022-12-26T10:35:35.329Z,6.60
2022-12-26T10:38:52.065Z,6.70
2022-12-26T10:41:36.702Z,6.70
2022-12-26T10:44:27.557Z,6.80
2022-12-26T10:47:29.368Z,6.80
2022-12-26T10:50:05.773Z,6.90
2022-12-26T10:52:43.433Z,6.90
2022-12-26T10:55:38.791Z,7.00
2022-12-26T10:58:48.635Z,7.10
2022-12-26T11:01:49.817Z,7.20
2022-12-26T11:08:12.350Z,7.20
2022-12-26T11:11:06.081Z,7.30
2022-12-26T11:13:57.644Z,7.40
2022-12-26T11:16:39.242Z,7.40
2022-12-26T11:19:30.319Z,7.50
2022-12-26T11:22:29.223Z,7.60
2022-12-26T11:25:35.379Z,7.50
2022-12-26T11:28:30.002Z,7.60
2022-12-26T11:31:00.637Z,7.60
2022-12-26T11:33:32.333Z,7.60
2022-12-26T11:36:14.575Z,7.80
2022-12-26T11:38:58.428Z,7.70
2022-12-26T11:41:39.838Z,7.80
2022-12-26T11:44:29.489Z,7.90
2022-12-26T11:47:04.527Z,7.90
2022-12-26T11:49:39.828Z,8.00
2022-12-26T11:52:38.473Z,8.00
2022-12-26T11:55:27.304Z,8.20
2022-12-26T11:58:17.999Z,8.40
2022-12-26T12:01:06.506Z,8.50
2022-12-26T12:03:54.714Z,8.70
2022-12-26T12:06:51.127Z,8.90
2022-12-26T12:10:14.933Z,9.10
2022-12-26T12:13:16.939Z,9.40
2022-12-26T12:16:31.615Z,9.60
2022-12-26T12:19:49.412Z,9.70
2022-12-26T12:23:09.160Z,9.80
2022-12-26T12:26:23.013Z,9.90
2022-12-26T12:29:58.966Z,9.90
2022-12-26T12:33:02.446Z,9.90
2022-12-26T12:35:44.676Z,9.90
2022-12-26T12:38:54.733Z,9.70
2022-12-26T12:42:08.162Z,9.70
2022-12-26T12:45:18.590Z,9.70
2022-12-26T12:48:06.739Z,9.70
2022-12-26T12:51:18.734Z,9.60
2022-12-26T12:54:38.680Z,9.60
2022-12-26T12:57:33.062Z,9.50
2022-12-26T13:00:13.354Z,9.60
2022-12-26T13:03:05.036Z,9.70
2022-12-26T13:05:48.380Z,9.60
2022-12-26T13:08:24.273Z,9.60
2022-12-26T13:10:55.971Z,9.60
2022-12-26T13:13:32.217Z,9.70
2022-12-26T13:16:14.574Z,9.80
2022-12-26T13:18:58.942Z,10.00
2022-12-26T13:21:27.549Z,10.10
2022-12-26T13:24:24.775Z,10.30
2022-12-26T13:26:54.700Z,10.20
2022-12-26T13:29:42.713Z,10.20
2022-12-26T13:32:22.266Z,10.10
2022-12-26T13:34:50.610Z,10.10
2022-12-26T13:37:38.815Z,10.00
2022-12-26T13:40:21.595Z,10.00
2022-12-26T13:43:22.046Z,10.00
2022-12-26T13:45:58.102Z,10.00
2022-12-26T13:48:32.941Z,10.00
2022-12-26T13:51:07.539Z,10.00
2022-12-26T13:53:43.207Z,10.00
2022-12-26T13:57:11.588Z,10.00
2022-12-26T14:00:35.253Z,10.10
2022-12-26T14:03:19.267Z,10.00
2022-12-26T14:05:55.988Z,9.90
2022-12-26T14:08:55.448Z,10.00
2022-12-26T14:12:24.695Z,10.00
2022-12-26T14:15:25.726Z,10.00
2022-12-26T14:18:08.764Z,9.90
2022-12-26T14:20:39.532Z,9.80
2022-12-26T14:23:18.694Z,9.80
2022-12-26T14:25:58.737Z,9.80
2022-12-26T14:28:49.511Z,9.70
2022-12-26T14:31:37.653Z,9.70
2022-12-26T14:34:31.893Z,9.70
2022-12-26T14:37:04.423Z,9.70
2022-12-26T14:39:43.961Z,9.70
2022-12-26T14:42:40.098Z,9.70
2022-12-26T14:45:35.031Z,9.70
2022-12-26T14:48:10.814Z,9.60
2022-12-26T14:51:23.758Z,9.60
2022-12-26T14:54:27.745Z,9.50
2022-12-26T14:56:55.824Z,9.50
2022-12-26T15:00:36.259Z,9.50
2022-12-26T15:03:08.637Z,9.50
2022-12-26T15:05:39.068Z,9.50
2022-12-26T15:08:09.896Z,9.50
2022-12-26T15:11:02.143Z,9.60
2022-12-26T15:14:06.027Z,9.50
2022-12-26T15:16:57.336Z,9.40
2022-12-26T15:19:32.835Z,9.40
2022-12-26T15:22:26.424Z,9.40
2022-12-26T15:25:19.538Z,9.40
2022-12-26T15:28:15.627Z,9.40
2022-12-26T15:30:52.226Z,9.50
2022-12-26T15:33:30.745Z,9.40
2022-12-26T15:36:34.994Z,9.30
2022-12-26T15:39:16.791Z,9.20
2022-12-26T15:42:09.868Z,9.20
2022-12-26T15:44:48.838Z,9.20
2022-12-26T15:47:38.632Z,9.20
2022-12-26T15:50:32.533Z,9.10
2022-12-26T15:52:59.399Z,9.10
2022-12-26T15:55:44.961Z,9.20
2022-12-26T15:58:42.005Z,9.20
2022-12-26T16:01:12.251Z,9.20
2022-12-26T16:03:54.443Z,9.20
2022-12-26T16:06:41.925Z,9.20
2022-12-26T16:09:35.022Z,9.20
2022-12-26T16:12:02.554Z,9.20
2022-12-26T16:14:39.701Z,9.20
2022-12-26T16:17:18.216Z,9.20
2022-12-26T16:19:54.656Z,9.20
2022-12-26T16:22:49.861Z,9.20
2022-12-26T16:25:21.701Z,9.20
2022-12-26T16:27:52.386Z,9.10
2022-12-26T16:30:26.334Z,9.10
2022-12-26T16:32:54.890Z,9.10
2022-12-26T16:35:29.905Z,9.10
2022-12-26T16:37:59.118Z,9.10
2022-12-26T16:40:29.524Z,9.10
2022-12-26T16:43:06.394Z,9.10
2022-12-26T16:45:39.155Z,9.10
2022-12-26T16:48:09.108Z,9.10
2022-12-26T16:50:48.122Z,9.10
2022-12-26T16:53:22.139Z,9.10
2022-12-26T16:55:51.915Z,9.10
2022-12-26T16:58:31.166Z,9.10
2022-12-26T17:01:07.300Z,9.10
2022-12-26T17:03:40.353Z,9.10
2022-12-26T17:06:14.867Z,9.20
2022-12-26T17:08:45.486Z,9.20
2022-12-26T17:11:12.902Z,9.20
2022-12-26T17:13:40.718Z,9.30
2022-12-26T17:16:11.559Z,9.30
2022-12-26T17:18:48.950Z,9.30
2022-12-26T17:21:19.438Z,9.40
2022-12-26T17:24:11.565Z,9.40
2022-12-26T17:26:41.100Z,9.40
2022-12-26T17:29:37.154Z,9.40
2022-12-26T17:32:08.838Z,9.40
2022-12-26T17:34:39.915Z,9.30
2022-12-26T17:37:30.749Z,9.30
2022-12-26T17:40:06.991Z,9.20
2022-12-26T17:42:50.098Z,9.20
2022-12-26T17:45:34.908Z,9.20
2022-12-26T17:48:01.742Z,9.20
2022-12-26T17:50:37.711Z,9.20
2022-12-26T17:53:06.199Z,9.10
2022-12-26T17:55:33.852Z,9.20
2022-12-26T17:58:00.699Z,9.10
2022-12-26T18:00:28.855Z,9.10
2022-12-26T18:02:56.693Z,9.10
2022-12-26T18:05:23.849Z,9.10
2022-12-26T18:07:52.341Z,9.10
2022-12-26T18:10:24.909Z,9.10
2022-12-26T18:12:52.852Z,9.10
2022-12-26T18:15:20.919Z,9.10
2022-12-26T18:17:50.448Z,9.10
2022-12-26T18:20:25.036Z,9.10
2022-12-26T18:22:52.830Z,9.10
2022-12-26T18:25:22.657Z,9.10
2022-12-26T18:27:50.352Z,9.00
2022-12-26T18:30:23.659Z,9.10
2022-12-26T18:32:52.208Z,9.00
2022-12-26T18:35:19.881Z,9.10
2022-12-26T18:37:52.775Z,9.00
2022-12-26T18:40:29.054Z,9.00
2022-12-26T18:42:56.249Z,9.00
2022-12-26T18:45:23.323Z,9.00
2022-12-26T18:47:50.563Z,9.00
2022-12-26T18:50:17.808Z,9.00
2022-12-26T18:52:47.524Z,8.90
2022-12-26T18:55:18.674Z,9.00
2022-12-26T18:57:45.667Z,9.00
2022-12-26T19:00:18.000Z,9.00
2022-12-26T19:02:47.475Z,9.00
2022-12-26T19:05:21.072Z,9.00
2022-12-26T19:07:50.283Z,9.00
2022-12-26T19:10:22.187Z,9.00
2022-12-26T19:12:49.180Z,9.00
2022-12-26T19:15:16.428Z,9.00
2022-12-26T19:17:46.276Z,9.00
2022-12-26T19:20:22.126Z,9.10
2022-12-26T19:22:49.693Z,9.10
2022-12-26T19:25:18.055Z,9.10
2022-12-26T19:27:45.957Z,9.10
2022-12-26T19:30:14.021Z,9.10
2022-12-26T19:32:41.204Z,9.00
2022-12-26T19:35:08.381Z,9.00
2022-12-26T19:37:35.330Z,9.10
2022-12-26T19:40:02.938Z,9.00
2022-12-26T19:42:29.924Z,9.10
2022-12-26T19:44:56.887Z,9.10
2022-12-26T19:47:23.795Z,9.10
2022-12-26T19:49:50.753Z,9.10
2022-12-26T19:52:17.775Z,9.10
2022-12-26T19:54:44.770Z,9.10
2022-12-26T19:57:11.625Z,9.10
2022-12-26T19:59:38.677Z,9.10
2022-12-26T20:02:05.622Z,9.20
2022-12-26T20:04:35.350Z,9.20
2022-12-26T20:07:02.240Z,9.20
2022-12-26T20:09:29.303Z,9.20
2022-12-26T20:11:56.893Z,9.20
2022-12-26T20:14:26.312Z,9.20
2022-12-26T20:17:05.684Z,9.20
2022-12-26T20:19:33.539Z,9.20
2022-12-26T20:22:00.456Z,9.20
2022-12-26T20:24:27.381Z,9.20
2022-12-26T20:26:54.591Z,9.20
2022-12-26T20:29:21.558Z,9.20
2022-12-26T20:31:49.500Z,9.20
2022-12-26T20:34:16.638Z,9.20
2022-12-26T20:36:43.699Z,9.20
2022-12-26T20:39:14.355Z,9.20
2022-12-26T20:41:41.714Z,9.10
2022-12-26T20:44:08.897Z,9.20
2022-12-26T20:46:36.564Z,9.20
2022-12-26T20:49:05.874Z,9.20
2022-12-26T20:51:38.458Z,9.20
2022-12-26T20:54:07.963Z,9.20
2022-12-26T20:56:36.444Z,9.20
2022-12-26T20:59:04.371Z,9.10
2022-12-26T21:01:34.035Z,9.20
2022-12-26T21:04:01.818Z,9.10
2022-12-26T21:06:31.377Z,9.10
2022-12-26T21:08:58.474Z,9.10
2022-12-26T21:11:31.461Z,9.10
2022-12-26T21:14:02.379Z,9.00
2022-12-26T21:16:35.321Z,9.10
2022-12-26T21:19:03.219Z,9.10
2022-12-26T21:21:33.258Z,9.00
2022-12-26T21:24:03.045Z,9.00
2022-12-26T21:26:31.168Z,8.90
2022-12-26T21:29:00.260Z,8.90
2022-12-26T21:31:31.831Z,9.00
2022-12-26T21:34:01.146Z,9.00
2022-12-26T21:36:29.530Z,8.90
2022-12-26T21:38:57.899Z,8.90
2022-12-26T21:41:26.163Z,8.90
2022-12-26T21:43:58.358Z,9.00
2022-12-26T21:46:25.491Z,8.90
2022-12-26T21:48:54.954Z,8.90
2022-12-26T21:51:27.179Z,8.80
2022-12-26T21:54:26.129Z,8.80
2022-12-26T21:56:56.080Z,8.80
2022-12-26T21:59:45.133Z,8.80
2022-12-26T22:02:34.079Z,8.80
2022-12-26T22:05:13.059Z,8.80
2022-12-26T22:07:48.317Z,8.80
2022-12-26T22:10:36.155Z,8.80
2022-12-26T22:13:07.199Z,8.90
2022-12-26T22:15:52.564Z,8.70
2022-12-26T22:19:33.896Z,8.80
2022-12-26T22:22:06.523Z,8.90
2022-12-26T22:24:43.302Z,8.80
2022-12-26T22:27:19.171Z,8.80
2022-12-26T22:29:46.587Z,8.80
2022-12-26T22:32:16.596Z,8.70
2022-12-26T22:34:43.793Z,8.70
2022-12-26T22:37:10.742Z,8.70
2022-12-26T22:39:37.861Z,8.60
2022-12-26T22:42:05.188Z,8.60
2022-12-26T22:44:34.876Z,8.60
2022-12-26T22:47:05.140Z,8.60
2022-12-26T22:49:35.278Z,8.50
2022-12-26T22:52:02.777Z,8.50
2022-12-26T22:54:30.073Z,8.40
2022-12-26T22:56:59.962Z,8.40
2022-12-26T22:59:57.856Z,8.30
2022-12-26T23:02:20.036Z,8.20
2022-12-26T23:04:56.254Z,8.20
2022-12-26T23:07:23.496Z,8.20
2022-12-26T23:09:50.947Z,8.10
2022-12-26T23:12:36.502Z,8.10
2022-12-26T23:15:06.531Z,8.10
2022-12-26T23:17:57.000Z,8.00
2022-12-26T23:20:45.025Z,8.00
2022-12-26T23:23:16.925Z,8.00
2022-12-26T23:25:43.860Z,7.90
2022-12-26T23:28:29.124Z,7.80
2022-12-26T23:30:57.252Z,7.80
2022-12-26T23:33:30.857Z,7.80
2022-12-26T23:35:58.772Z,7.80
2022-12-26T23:38:26.120Z,7.80
2022-12-26T23:40:53.064Z,7.70
2022-12-26T23:43:20.588Z,7.80
2022-12-26T23:45:47.615Z,7.80
2022-12-26T23:48:14.661Z,7.70
2022-12-26T23:50:41.976Z,7.70
2022-12-26T23:53:09.294Z,7.80
2022-12-26T23:55:41.794Z,7.80
2022-12-26T23:58:16.206Z,7.80
